createdAt,value
2018-07-23T00:00:16.479Z,25.00
2018-07-23T00:02:20.026Z,25.23
2018-07-23T00:04:23.545Z,26.33
2018-07-23T00:06:27.081Z,24.37
2018-07-23T00:08:30.600Z,23.83
2018-07-23T00:10:34.489Z,23.63
2018-07-23T00:12:38.020Z,24.00
2018-07-23T00:14:41.572Z,23.37
2018-07-23T00:16:45.326Z,22.20
2018-07-23T00:18:48.879Z,24.73
2018-07-23T00:20:52.427Z,23.53
2018-07-23T00:22:55.959Z,23.13
2018-07-23T00:24:59.502Z,24.20
2018-07-23T00:27:03.046Z,23.77
2018-07-23T00:29:06.593Z,22.77
2018-07-23T00:31:10.208Z,24.23
2018-07-23T00:33:13.737Z,24.70
2018-07-23T00:35:17.328Z,25.47
2018-07-23T00:37:20.797Z,23.67
2018-07-23T00:39:24.340Z,24.93
2018-07-23T00:41:27.886Z,25.23
2018-07-23T00:43:31.380Z,25.50
2018-07-23T00:45:34.912Z,26.60
2018-07-23T00:47:38.856Z,26.50
2018-07-23T00:49:42.369Z,25.43
2018-07-23T00:51:45.892Z,26.97
2018-07-23T00:53:49.432Z,25.93
2018-07-23T00:55:52.954Z,25.17
2018-07-23T00:57:56.495Z,26.70
2018-07-23T01:00:00.368Z,27.07
2018-07-23T01:02:03.963Z,25.07
2018-07-23T01:04:07.500Z,27.43
2018-07-23T01:06:11.047Z,26.67
2018-07-23T01:08:14.616Z,28.20
2018-07-23T01:10:18.155Z,25.17
2018-07-23T01:12:35.006Z,27.80
2018-07-23T01:14:38.556Z,27.87
2018-07-23T01:16:42.156Z,27.03
2018-07-23T01:18:45.713Z,26.30
2018-07-23T01:20:49.280Z,25.50
2018-07-23T01:22:52.852Z,25.10
2018-07-23T01:24:57.376Z,27.37
2018-07-23T01:27:01.019Z,27.37
2018-07-23T01:29:04.768Z,26.53
2018-07-23T01:31:08.440Z,24.50
2018-07-23T01:33:12.016Z,25.90
2018-07-23T01:35:15.525Z,25.57
2018-07-23T01:37:19.479Z,26.33
2018-07-23T01:39:23.063Z,26.77
2018-07-23T01:41:26.615Z,27.77
2018-07-23T01:43:30.123Z,26.50
2018-07-23T01:45:34.024Z,25.70
2018-07-23T01:47:37.503Z,25.77
2018-07-23T01:49:41.002Z,25.33
2018-07-23T01:51:44.588Z,24.60
2018-07-23T01:53:48.095Z,25.77
2018-07-23T01:55:51.631Z,25.50
2018-07-23T01:57:55.185Z,25.67
2018-07-23T01:59:59.069Z,25.87
2018-07-23T02:02:02.590Z,28.30
2018-07-23T02:04:06.100Z,25.83
2018-07-23T02:06:10.255Z,26.63
2018-07-23T02:08:13.760Z,26.57
2018-07-23T02:10:17.282Z,25.77
2018-07-23T02:12:20.853Z,26.50
2018-07-23T02:14:24.414Z,26.77
2018-07-23T02:16:28.048Z,27.40
2018-07-23T02:18:31.836Z,26.60
2018-07-23T02:20:35.431Z,27.30
2018-07-23T02:22:39.032Z,28.77
2018-07-23T02:24:42.552Z,27.83
2018-07-23T02:26:46.474Z,26.03
2018-07-23T02:28:50.007Z,28.03
2018-07-23T02:30:53.909Z,29.30
2018-07-23T02:32:57.417Z,28.23
2018-07-23T02:35:00.945Z,28.33
2018-07-23T02:37:04.543Z,29.63
2018-07-23T02:39:10.665Z,28.33
2018-07-23T02:41:14.263Z,29.37
2018-07-23T02:43:17.809Z,27.57
2018-07-23T02:45:21.355Z,30.60
2018-07-23T02:47:24.908Z,27.63
2018-07-23T02:49:28.460Z,27.67
2018-07-23T02:51:32.045Z,27.77
2018-07-23T02:53:35.965Z,28.13
2018-07-23T02:55:39.861Z,27.47
2018-07-23T02:57:43.465Z,27.80
2018-07-23T02:59:46.981Z,27.73
2018-07-23T03:01:50.539Z,27.30
2018-07-23T03:03:56.336Z,25.47
2018-07-23T03:06:00.286Z,25.47
2018-07-23T03:08:03.968Z,26.33
2018-07-23T03:10:07.853Z,24.10
2018-07-23T03:12:11.475Z,24.80
2018-07-23T03:14:15.044Z,24.90
2018-07-23T03:16:19.050Z,25.63
2018-07-23T03:18:22.592Z,25.13
2018-07-23T03:20:26.109Z,25.57
2018-07-23T03:22:30.047Z,25.10
2018-07-23T03:24:33.569Z,27.03
2018-07-23T03:26:37.101Z,26.33
2018-07-23T03:28:40.575Z,27.27
2018-07-23T03:30:44.101Z,28.23
2018-07-23T03:32:47.671Z,27.97
2018-07-23T03:34:51.192Z,29.97
2018-07-23T03:36:55.080Z,27.50
2018-07-23T03:38:58.660Z,29.90
2018-07-23T03:41:02.221Z,28.67
2018-07-23T03:43:05.801Z,28.20
2018-07-23T03:45:09.318Z,28.43
2018-07-23T03:47:12.846Z,29.53
2018-07-23T03:49:16.762Z,28.60
2018-07-23T03:51:20.314Z,31.37
2018-07-23T03:53:24.236Z,29.60
2018-07-23T03:55:27.752Z,30.43
2018-07-23T03:57:31.311Z,28.07
2018-07-23T03:59:34.884Z,27.57
2018-07-23T04:01:38.467Z,28.50
2018-07-23T04:03:41.969Z,28.00
2018-07-23T04:05:45.521Z,28.57
2018-07-23T04:07:49.090Z,27.70
2018-07-23T04:09:52.631Z,27.57
2018-07-23T04:11:56.338Z,27.83
2018-07-23T04:13:59.861Z,26.47
2018-07-23T04:16:03.445Z,25.23
2018-07-23T04:18:07.008Z,24.93
2018-07-23T04:20:10.934Z,25.47
2018-07-23T04:22:14.463Z,25.00
2018-07-23T04:24:17.970Z,23.90
2018-07-23T04:26:21.529Z,24.67
2018-07-23T04:28:25.075Z,23.27
2018-07-23T04:30:28.868Z,23.10
2018-07-23T04:32:32.468Z,24.37
2018-07-23T04:34:36.004Z,23.77
2018-07-23T04:36:39.556Z,23.50
2018-07-23T04:38:43.120Z,22.33
2018-07-23T04:40:46.568Z,22.63
2018-07-23T04:42:50.163Z,21.50
2018-07-23T04:44:53.674Z,21.90
2018-07-23T04:46:57.283Z,22.07
2018-07-23T04:49:00.844Z,22.70
2018-07-23T04:51:04.432Z,19.77
2018-07-23T04:53:07.974Z,22.07
2018-07-23T04:55:11.602Z,22.13
2018-07-23T04:57:15.132Z,20.90
2018-07-23T04:59:19.037Z,19.43
2018-07-23T05:01:22.641Z,20.07
2018-07-23T05:03:26.211Z,19.30
2018-07-23T05:05:29.734Z,19.60
2018-07-23T05:07:33.255Z,20.03
2018-07-23T05:09:36.824Z,19.20
2018-07-23T05:11:41.032Z,17.73
2018-07-23T05:13:45.040Z,18.33
2018-07-23T05:15:48.551Z,19.60
2018-07-23T05:17:52.256Z,19.33
2018-07-23T05:19:55.828Z,19.43
2018-07-23T05:21:59.533Z,20.60
2018-07-23T05:24:03.096Z,19.00
2018-07-23T05:26:07.582Z,19.53
2018-07-23T05:28:11.333Z,17.53
2018-07-23T05:30:15.074Z,18.73
2018-07-23T05:32:18.595Z,18.87
2018-07-23T05:34:22.360Z,18.20
2018-07-23T05:36:26.024Z,18.50
2018-07-23T05:38:29.822Z,18.67
2018-07-23T05:40:33.563Z,17.90
2018-07-23T05:42:37.152Z,17.30
2018-07-23T05:44:40.771Z,15.83
2018-07-23T05:46:44.482Z,17.03
2018-07-23T05:48:48.224Z,17.47
2018-07-23T05:50:51.755Z,16.73
2018-07-23T05:52:55.320Z,16.33
2018-07-23T05:54:58.886Z,16.57
2018-07-23T05:57:02.462Z,18.47
2018-07-23T05:59:06.432Z,18.13
2018-07-23T06:01:09.961Z,17.77
2018-07-23T06:03:13.736Z,16.47
2018-07-23T06:05:17.996Z,15.13
2018-07-23T06:07:21.573Z,15.33
2018-07-23T06:09:25.256Z,14.70
2018-07-23T06:11:28.897Z,14.00
2018-07-23T06:13:32.542Z,12.63
2018-07-23T06:15:36.183Z,13.50
2018-07-23T06:17:40.096Z,13.00
2018-07-23T06:19:43.756Z,12.40
2018-07-23T06:21:47.391Z,11.83
2018-07-23T06:23:50.968Z,13.10
2018-07-23T06:25:54.795Z,13.30
2018-07-23T06:27:58.428Z,12.43
2018-07-23T06:30:02.456Z,12.40
2018-07-23T06:32:06.615Z,12.23
2018-07-23T06:34:10.203Z,12.13
2018-07-23T06:36:13.900Z,11.77
2018-07-23T06:38:17.519Z,10.27
2018-07-23T06:40:21.301Z,10.60
2018-07-23T06:42:24.950Z,10.50
2018-07-23T06:44:29.389Z,10.70
2018-07-23T06:46:32.965Z,11.57
2018-07-23T06:48:36.790Z,10.93
2018-07-23T06:50:40.385Z,10.73
2018-07-23T06:52:43.943Z,11.67
2018-07-23T06:54:48.556Z,21.70
2018-07-23T06:56:53.398Z,11.90
2018-07-23T06:58:57.146Z,11.13
2018-07-23T07:01:01.519Z,9.43
2018-07-23T07:03:05.858Z,11.33
2018-07-23T07:05:09.506Z,10.97
2018-07-23T07:07:13.431Z,10.10
2018-07-23T07:09:17.114Z,10.23
2018-07-23T07:11:20.706Z,10.67
2018-07-23T07:13:24.455Z,10.40
2018-07-23T07:15:28.340Z,10.73
2018-07-23T07:17:32.027Z,9.67
2018-07-23T07:19:35.690Z,10.03
2018-07-23T07:21:39.332Z,10.70
2018-07-23T07:23:42.998Z,10.73
2018-07-23T07:25:46.733Z,8.93
2018-07-23T07:27:50.400Z,8.20
2018-07-23T07:29:53.988Z,9.40
2018-07-23T07:31:57.547Z,9.80
2018-07-23T07:34:01.766Z,9.30
2018-07-23T07:36:05.434Z,9.50
2018-07-23T07:38:09.023Z,9.50
2018-07-23T07:40:12.724Z,9.73
2018-07-23T07:42:16.741Z,8.60
2018-07-23T07:44:20.430Z,8.73
2018-07-23T07:46:24.396Z,9.17
2018-07-23T07:48:28.212Z,8.83
2018-07-23T07:50:31.777Z,9.17
2018-07-23T07:52:35.372Z,8.73
2018-07-23T07:54:39.028Z,8.30
2018-07-23T07:56:43.755Z,8.33
2018-07-23T07:58:47.331Z,9.00
2018-07-23T08:00:50.929Z,8.13
2018-07-23T08:02:54.474Z,7.50
2018-07-23T08:04:58.037Z,7.90
2018-07-23T08:07:01.957Z,8.20
2018-07-23T08:09:08.742Z,7.70
2018-07-23T08:11:12.413Z,8.00
2018-07-23T08:13:16.028Z,8.00
2018-07-23T08:15:19.555Z,7.20
2018-07-23T08:17:23.533Z,7.50
2018-07-23T08:19:27.918Z,7.67
2018-07-23T08:21:31.460Z,7.27
2018-07-23T08:23:35.145Z,7.90
2018-07-23T08:25:39.234Z,7.17
2018-07-23T08:27:42.797Z,7.90
2018-07-23T08:29:46.584Z,8.17
2018-07-23T08:31:50.506Z,7.77
2018-07-23T08:33:54.240Z,7.83
2018-07-23T08:35:58.014Z,7.53
2018-07-23T08:38:01.644Z,6.80
2018-07-23T08:40:06.195Z,7.30
2018-07-23T08:42:10.271Z,7.90
2018-07-23T08:44:13.906Z,6.50
2018-07-23T08:46:17.984Z,7.17
2018-07-23T08:48:21.674Z,7.73
2018-07-23T08:50:25.220Z,7.90
2018-07-23T08:52:29.344Z,8.60
2018-07-23T08:54:33.030Z,7.73
2018-07-23T08:56:36.741Z,8.30
2018-07-23T08:58:40.221Z,8.50
2018-07-23T09:00:43.804Z,8.27
2018-07-23T09:02:47.499Z,7.27
2018-07-23T09:04:51.236Z,8.00
2018-07-23T09:06:54.900Z,7.40
2018-07-23T09:08:58.481Z,7.10
2018-07-23T09:11:02.086Z,8.20
2018-07-23T09:13:05.982Z,7.30
2018-07-23T09:15:10.498Z,7.70
2018-07-23T09:17:14.234Z,7.50
2018-07-23T09:19:18.560Z,7.22
2018-07-23T09:21:22.456Z,6.97
2018-07-23T09:23:26.557Z,7.03
2018-07-23T09:25:35.475Z,6.83
2018-07-23T09:27:39.088Z,17.65
2018-07-23T09:29:45.500Z,7.53
2018-07-23T09:31:49.001Z,7.67
2018-07-23T09:33:52.645Z,8.73
2018-07-23T09:35:56.207Z,6.97
2018-07-23T09:37:59.764Z,6.87
2018-07-23T09:40:03.392Z,7.10
2018-07-23T09:42:07.462Z,6.58
2018-07-23T09:44:12.031Z,6.22
2018-07-23T09:46:17.915Z,7.03
2018-07-23T09:48:21.590Z,6.97
2018-07-23T09:50:25.193Z,7.35
2018-07-23T09:52:29.947Z,7.70
2018-07-23T09:54:33.593Z,7.35
2018-07-23T09:56:38.618Z,7.75
2018-07-23T09:58:42.779Z,7.90
2018-07-23T10:00:51.665Z,8.08
2018-07-23T10:02:56.600Z,7.22
2018-07-23T10:05:00.418Z,7.47
2018-07-23T10:07:04.131Z,6.92
2018-07-23T10:09:11.536Z,7.95
2018-07-23T10:11:15.177Z,7.90
2018-07-23T10:13:18.723Z,7.47
2018-07-23T10:15:22.466Z,7.83
2018-07-23T10:17:26.222Z,7.40
2018-07-23T10:19:30.395Z,7.33
2018-07-23T10:21:34.277Z,6.90
2018-07-23T10:23:38.537Z,8.23
2018-07-23T10:25:46.656Z,7.30
2018-07-23T10:27:51.098Z,7.60
2018-07-23T10:29:55.941Z,7.42
2018-07-23T10:32:00.214Z,7.33
2018-07-23T10:34:04.563Z,7.03
2018-07-23T10:36:18.873Z,5.90
2018-07-23T10:41:01.872Z,6.10
2018-07-23T10:43:10.376Z,6.70
2018-07-23T10:45:14.102Z,7.20
2018-07-23T10:47:19.450Z,7.70
2018-07-23T10:49:25.183Z,7.60
2018-07-23T10:51:29.653Z,7.57
2018-07-23T10:53:35.935Z,7.83
2018-07-23T10:55:54.094Z,6.93
2018-07-23T10:58:00.743Z,7.17
2018-07-23T11:00:05.425Z,6.93
2018-07-23T11:02:09.083Z,7.20
2018-07-23T11:04:13.799Z,6.67
2018-07-23T11:06:17.785Z,5.80
2018-07-23T11:08:21.393Z,5.60
2018-07-23T11:10:25.096Z,5.20
2018-07-23T11:12:28.979Z,5.30
2018-07-23T11:14:32.590Z,4.77
2018-07-23T11:16:36.305Z,5.55
2018-07-23T11:18:39.842Z,6.33
2018-07-23T11:20:46.250Z,5.70
2018-07-23T11:22:49.834Z,5.90
2018-07-23T11:24:53.567Z,5.63
2018-07-23T11:26:57.499Z,5.15
2018-07-23T11:29:02.354Z,5.90
2018-07-23T11:31:06.265Z,5.50
2018-07-23T11:33:10.052Z,5.30
2018-07-23T11:35:13.690Z,5.60
2018-07-23T11:37:19.363Z,6.03
2018-07-23T11:39:24.270Z,4.70
2018-07-23T11:41:31.072Z,5.60
2018-07-23T11:43:34.866Z,4.83
2018-07-23T11:45:38.751Z,4.97
2018-07-23T11:47:43.866Z,5.17
2018-07-23T11:49:48.664Z,4.93
2018-07-23T11:51:52.440Z,5.70
2018-07-23T11:53:56.512Z,5.47
2018-07-23T11:56:00.645Z,4.70
2018-07-23T11:58:04.625Z,4.63
2018-07-23T12:00:08.276Z,5.23
2018-07-23T12:02:12.067Z,5.10
2018-07-23T12:04:15.732Z,4.67
2018-07-23T12:06:19.535Z,4.80
2018-07-23T12:08:23.220Z,5.37
2018-07-23T12:10:26.823Z,5.13
2018-07-23T12:12:30.501Z,4.93
2018-07-23T12:14:34.105Z,5.33
2018-07-23T12:16:40.976Z,5.30
2018-07-23T12:18:45.176Z,5.33
2018-07-23T12:20:48.807Z,5.23
2018-07-23T12:22:52.362Z,5.23
2018-07-23T12:24:56.208Z,5.07
2018-07-23T12:26:59.830Z,5.00
2018-07-23T12:29:03.562Z,5.47
2018-07-23T12:31:07.694Z,5.83
2018-07-23T12:33:11.494Z,5.30
2018-07-23T12:35:15.085Z,5.33
2018-07-23T12:37:18.800Z,5.00
2018-07-23T12:39:24.029Z,5.37
2018-07-23T12:41:27.873Z,5.17
2018-07-23T12:43:31.519Z,5.50
2018-07-23T12:45:35.376Z,5.37
2018-07-23T12:47:39.084Z,5.43
2018-07-23T12:49:42.752Z,5.43
2018-07-23T12:51:46.346Z,5.10
2018-07-23T12:53:50.208Z,5.40
2018-07-23T12:55:53.977Z,5.67
2018-07-23T12:57:57.648Z,4.97
2018-07-23T13:00:01.336Z,4.93
2018-07-23T13:02:05.941Z,5.50
2018-07-23T13:04:09.531Z,5.17
2018-07-23T13:06:13.053Z,6.13
2018-07-23T13:08:16.605Z,5.40
2018-07-23T13:10:20.154Z,5.50
2018-07-23T13:12:24.316Z,5.80
2018-07-23T13:14:27.898Z,5.47
2018-07-23T13:16:31.544Z,5.37
2018-07-23T13:18:35.604Z,5.23
2018-07-23T13:20:39.159Z,5.43
2018-07-23T13:22:42.691Z,5.20
2018-07-23T13:24:46.270Z,5.20
2018-07-23T13:26:49.942Z,5.20
2018-07-23T13:28:53.881Z,5.17
2018-07-23T13:31:01.442Z,5.27
2018-07-23T13:33:05.249Z,5.67
2018-07-23T13:35:08.953Z,5.03
2018-07-23T13:37:12.710Z,5.43
2018-07-23T13:39:16.477Z,5.63
2018-07-23T13:41:20.378Z,5.53
2018-07-23T13:43:24.049Z,5.60
2018-07-23T13:45:27.756Z,5.43
2018-07-23T13:47:31.705Z,5.47
2018-07-23T13:49:35.384Z,5.50
2018-07-23T13:51:39.365Z,4.47
2018-07-23T13:53:43.581Z,5.70
2018-07-23T13:55:47.221Z,5.43
2018-07-23T13:57:51.487Z,5.47
2018-07-23T13:59:56.066Z,5.33
2018-07-23T14:01:59.732Z,5.80
2018-07-23T14:04:04.887Z,5.27
2018-07-23T14:06:10.544Z,5.83
2018-07-23T14:08:14.969Z,5.47
2018-07-23T14:10:18.581Z,5.13
2018-07-23T14:12:22.408Z,5.77
2018-07-23T14:14:25.970Z,5.73
2018-07-23T14:16:29.596Z,5.10
2018-07-23T14:18:33.187Z,5.30
2018-07-23T14:20:37.340Z,5.23
2018-07-23T14:22:40.929Z,5.53
2018-07-23T14:24:44.902Z,5.90
2018-07-23T14:26:48.508Z,5.30
2018-07-23T14:28:52.205Z,4.77
2018-07-23T14:30:56.869Z,5.23
2018-07-23T14:33:00.596Z,5.17
2018-07-23T14:35:04.221Z,5.20
2018-07-23T14:37:07.761Z,5.60
2018-07-23T14:39:13.504Z,5.57
2018-07-23T14:41:17.092Z,5.53
2018-07-23T14:43:20.861Z,6.10
2018-07-23T14:45:24.502Z,5.27
2018-07-23T14:47:28.139Z,5.57
2018-07-23T14:49:31.745Z,5.27
2018-07-23T14:51:35.730Z,5.80
2018-07-23T14:53:39.324Z,6.10
2018-07-23T14:55:42.976Z,5.10
2018-07-23T14:57:46.760Z,5.47
2018-07-23T14:59:50.491Z,5.80
2018-07-23T15:02:00.895Z,5.37
2018-07-23T15:04:04.512Z,5.57
2018-07-23T15:06:08.153Z,5.30
2018-07-23T15:08:11.762Z,5.40
2018-07-23T15:10:15.354Z,5.87
2018-07-23T15:12:18.996Z,5.90
2018-07-23T15:14:23.079Z,5.40
2018-07-23T15:16:26.763Z,5.37
2018-07-23T15:18:30.771Z,5.73
2018-07-23T15:20:34.395Z,5.43
2018-07-23T15:22:38.068Z,5.57
2018-07-23T15:24:41.664Z,5.80
2018-07-23T15:26:45.292Z,5.70
2018-07-23T15:28:49.092Z,6.77
2018-07-23T15:30:52.589Z,6.47
2018-07-23T15:32:56.253Z,6.40
2018-07-23T15:35:00.057Z,6.87
2018-07-23T15:37:03.688Z,6.50
2018-07-23T15:39:09.165Z,6.63
2018-07-23T15:41:12.784Z,5.97
2018-07-23T15:43:16.356Z,6.83
2018-07-23T15:45:20.199Z,5.87
2018-07-23T15:47:24.009Z,6.20
2018-07-23T15:49:27.800Z,5.87
2018-07-23T15:51:31.486Z,6.23
2018-07-23T15:53:35.099Z,5.73
2018-07-23T15:55:38.817Z,6.70
2018-07-23T15:57:42.421Z,6.17
2018-07-23T15:59:46.073Z,6.37
2018-07-23T16:01:49.699Z,6.30
2018-07-23T16:03:53.262Z,6.83
2018-07-23T16:05:56.878Z,6.87
2018-07-23T16:08:00.477Z,7.03
2018-07-23T16:10:04.173Z,6.37
2018-07-23T16:12:07.861Z,6.60
2018-07-23T16:14:11.981Z,6.67
2018-07-23T16:16:15.988Z,7.13
2018-07-23T16:18:19.582Z,6.90
2018-07-23T16:20:23.299Z,6.70
2018-07-23T16:22:26.890Z,7.30
2018-07-23T16:24:30.594Z,6.43
2018-07-23T16:26:34.662Z,7.17
2018-07-23T16:28:38.282Z,6.80
2018-07-23T16:30:41.940Z,7.13
2018-07-23T16:32:45.587Z,6.50
2018-07-23T16:34:49.291Z,6.20
2018-07-23T16:36:52.929Z,6.60
2018-07-23T16:38:56.589Z,5.73
2018-07-23T16:41:00.599Z,6.23
2018-07-23T16:43:04.877Z,6.70
2018-07-23T16:45:08.575Z,5.90
2018-07-23T16:47:12.141Z,6.43
2018-07-23T16:49:15.725Z,6.13
2018-07-23T16:51:19.287Z,7.10
2018-07-23T16:53:22.912Z,6.13
2018-07-23T16:55:26.546Z,7.33
2018-07-23T16:57:30.463Z,7.10
2018-07-23T16:59:34.156Z,7.60
2018-07-23T17:01:37.691Z,6.83
2018-07-23T17:03:41.184Z,7.07
2018-07-23T17:05:47.270Z,7.30
2018-07-23T17:07:50.808Z,7.53
2018-07-23T17:09:54.478Z,7.20
2018-07-23T17:11:58.123Z,6.70
2018-07-23T17:14:01.679Z,8.03
2018-07-23T17:16:05.373Z,7.73
2018-07-23T17:18:09.095Z,7.20
2018-07-23T17:20:12.765Z,7.40
2018-07-23T17:22:16.373Z,8.13
2018-07-23T17:24:19.922Z,7.13
2018-07-23T17:26:23.529Z,7.90
2018-07-23T17:28:27.217Z,7.93
2018-07-23T17:30:30.906Z,6.93
2018-07-23T17:32:34.558Z,6.60
2018-07-23T17:34:38.150Z,6.20
2018-07-23T17:36:41.777Z,7.10
2018-07-23T17:38:45.350Z,6.63
2018-07-23T17:40:49.188Z,6.70
2018-07-23T17:42:53.131Z,6.90
2018-07-23T17:44:56.846Z,6.17
2018-07-23T17:47:00.776Z,5.40
2018-07-23T17:49:04.443Z,5.90
2018-07-23T17:51:08.075Z,5.17
2018-07-23T17:53:11.656Z,4.93
2018-07-23T17:55:15.285Z,4.87
2018-07-23T17:57:19.004Z,4.90
2018-07-23T17:59:22.645Z,4.97
2018-07-23T18:01:26.528Z,4.30
2018-07-23T18:03:30.125Z,5.00
2018-07-23T18:05:33.763Z,4.50
2018-07-23T18:07:37.751Z,4.97
2018-07-23T18:09:41.353Z,4.63
2018-07-23T18:11:45.320Z,4.30
2018-07-23T18:13:48.941Z,4.37
2018-07-23T18:15:52.635Z,4.40
2018-07-23T18:17:56.283Z,4.43
2018-07-23T18:19:59.941Z,3.93
2018-07-23T18:22:03.855Z,4.30
2018-07-23T18:24:07.456Z,4.20
2018-07-23T18:26:11.126Z,4.27
2018-07-23T18:28:14.788Z,4.20
2018-07-23T18:30:18.743Z,4.23
2018-07-23T18:32:22.462Z,4.00
2018-07-23T18:34:25.997Z,4.20
2018-07-23T18:36:29.591Z,4.23
2018-07-23T18:38:33.343Z,3.80
2018-07-23T18:40:36.993Z,4.53
2018-07-23T18:42:40.612Z,4.10
2018-07-23T18:44:44.311Z,4.20
2018-07-23T18:46:47.992Z,4.17
2018-07-23T18:49:30.167Z,4.80
2018-07-23T18:51:50.116Z,4.60
2018-07-23T18:53:53.697Z,4.23
2018-07-23T18:55:57.334Z,4.77
2018-07-23T18:58:00.927Z,4.30
2018-07-23T19:00:05.298Z,4.30
2018-07-23T19:02:10.609Z,4.23
2018-07-23T19:04:14.180Z,4.40
2018-07-23T19:06:17.957Z,4.27
2018-07-23T19:08:21.943Z,4.17
2018-07-23T19:10:25.618Z,4.17
2018-07-23T19:12:29.185Z,3.77
2018-07-23T19:14:32.845Z,4.10
2018-07-23T19:16:36.476Z,4.20
2018-07-23T19:18:40.093Z,6.07
2018-07-23T19:20:44.080Z,7.43
2018-07-23T19:22:47.839Z,6.40
2018-07-23T19:24:51.405Z,6.40
2018-07-23T19:26:56.004Z,6.03
2018-07-23T19:28:59.652Z,6.87
2018-07-23T19:31:03.314Z,6.20
2018-07-23T19:33:06.989Z,6.23
2018-07-23T19:35:10.943Z,6.57
2018-07-23T19:37:15.104Z,6.40
2018-07-23T19:39:20.097Z,6.90
2018-07-23T19:41:23.992Z,7.10
2018-07-23T19:43:27.848Z,6.97
2018-07-23T19:45:33.152Z,7.07
2018-07-23T19:47:36.782Z,6.63
2018-07-23T19:49:40.614Z,6.90
2018-07-23T19:51:44.260Z,7.00
2018-07-23T19:53:47.852Z,6.67
2018-07-23T19:55:51.452Z,6.70
2018-07-23T19:57:55.043Z,7.03
2018-07-23T19:59:58.605Z,6.13
2018-07-23T20:02:02.165Z,6.40
2018-07-23T20:04:06.088Z,6.00
2018-07-23T20:06:09.710Z,6.50
2018-07-23T20:08:13.408Z,7.27
2018-07-23T20:10:17.090Z,7.00
2018-07-23T20:12:20.683Z,7.13
2018-07-23T20:14:24.228Z,7.13
2018-07-23T20:16:27.766Z,6.90
2018-07-23T20:18:31.311Z,6.20
2018-07-23T20:20:34.932Z,6.20
2018-07-23T20:22:38.540Z,7.23
2018-07-23T20:24:42.123Z,6.60
2018-07-23T20:26:45.701Z,6.67
2018-07-23T20:28:49.342Z,6.70
2018-07-23T20:30:53.299Z,6.37
2018-07-23T20:32:56.920Z,6.60
2018-07-23T20:35:00.477Z,6.97
2018-07-23T20:37:04.246Z,5.57
2018-07-23T20:39:08.652Z,5.60
2018-07-23T20:41:12.272Z,5.50
2018-07-23T20:43:15.849Z,5.70
2018-07-23T20:45:19.457Z,5.70
2018-07-23T20:47:23.041Z,6.07
2018-07-23T20:49:26.605Z,6.33
2018-07-23T20:51:30.283Z,6.43
2018-07-23T20:53:33.996Z,6.07
2018-07-23T20:55:37.511Z,6.30
2018-07-23T20:57:41.125Z,5.97
2018-07-23T20:59:51.257Z,5.93
2018-07-23T21:01:54.870Z,6.93
2018-07-23T21:03:58.480Z,6.57
2018-07-23T21:06:02.251Z,6.13
2018-07-23T21:08:06.198Z,6.23
2018-07-23T21:10:09.844Z,6.13
2018-07-23T21:12:13.481Z,7.00
2018-07-23T21:14:17.004Z,6.57
2018-07-23T21:16:20.596Z,8.00
2018-07-23T21:18:24.221Z,7.63
2018-07-23T21:20:27.811Z,7.90
2018-07-23T21:22:31.811Z,8.30
2018-07-23T21:24:35.409Z,8.50
2018-07-23T21:26:39.044Z,7.67
2018-07-23T21:28:42.699Z,8.30
2018-07-23T21:30:46.337Z,8.83
2018-07-23T21:32:49.945Z,8.77
2018-07-23T21:34:53.593Z,10.03
2018-07-23T21:36:57.225Z,9.77
2018-07-23T21:39:00.865Z,9.77
2018-07-23T21:41:04.504Z,9.33
2018-07-23T21:43:08.114Z,10.13
2018-07-23T21:45:11.668Z,9.13
2018-07-23T21:47:15.288Z,9.83
2018-07-23T21:49:18.912Z,9.03
2018-07-23T21:51:22.503Z,9.20
2018-07-23T21:53:26.152Z,9.53
2018-07-23T21:55:29.720Z,9.97
2018-07-23T21:57:33.721Z,10.03
2018-07-23T21:59:37.297Z,10.10
2018-07-23T22:01:40.889Z,10.27
2018-07-23T22:03:44.539Z,9.93
2018-07-23T22:05:48.146Z,9.90
2018-07-23T22:07:51.767Z,11.20
2018-07-23T22:09:55.400Z,10.27
2018-07-23T22:11:59.102Z,9.47
2018-07-23T22:14:02.793Z,9.23
2018-07-23T22:16:06.617Z,8.07
2018-07-23T22:18:10.587Z,8.30
2018-07-23T22:20:14.242Z,8.53
2018-07-23T22:22:17.867Z,8.40
2018-07-23T22:24:21.408Z,8.20
2018-07-23T22:26:25.011Z,8.30
2018-07-23T22:28:28.649Z,9.07
2018-07-23T22:30:32.284Z,8.97
2018-07-23T22:32:35.875Z,8.87
2018-07-23T22:34:39.498Z,8.40
2018-07-23T22:36:43.105Z,8.77
2018-07-23T22:38:46.716Z,9.10
2018-07-23T22:40:50.313Z,8.10
2018-07-23T22:42:54.044Z,9.30
2018-07-23T22:44:57.585Z,9.43
2018-07-23T22:47:01.249Z,8.77
2018-07-23T22:49:04.885Z,8.67
2018-07-23T22:51:08.511Z,9.30
2018-07-23T22:53:12.086Z,8.83
2018-07-23T22:55:15.708Z,8.70
2018-07-23T22:57:19.542Z,8.50
2018-07-23T22:59:23.076Z,8.43
2018-07-23T23:01:26.662Z,8.73
2018-07-23T23:03:30.365Z,9.20
2018-07-23T23:05:34.316Z,9.83
2018-07-23T23:07:37.924Z,9.17
2018-07-23T23:09:41.570Z,9.30
2018-07-23T23:11:45.187Z,9.03
2018-07-23T23:13:48.858Z,9.90
2018-07-23T23:15:52.442Z,9.73
2018-07-23T23:17:56.047Z,10.07
2018-07-23T23:19:59.687Z,9.77
2018-07-23T23:22:03.292Z,8.87
2018-07-23T23:24:06.934Z,9.33
2018-07-23T23:26:10.490Z,9.47
2018-07-23T23:28:14.132Z,8.70
2018-07-23T23:30:19.509Z,9.17
2018-07-23T23:32:23.104Z,9.40
2018-07-23T23:34:26.671Z,9.10
2018-07-23T23:36:30.209Z,9.67
2018-07-23T23:38:33.848Z,10.33
2018-07-23T23:40:37.488Z,8.93
2018-07-23T23:42:41.090Z,8.90
2018-07-23T23:44:44.766Z,9.67
2018-07-23T23:46:48.318Z,9.73
2018-07-23T23:48:51.957Z,8.57
2018-07-23T23:50:55.969Z,10.27
2018-07-23T23:52:59.640Z,10.00
2018-07-23T23:55:03.281Z,10.03
2018-07-23T23:57:06.819Z,9.97
2018-07-23T23:59:10.389Z,9.97
